sensor_id;sensor_type;location;lat;lon;timestamp;pressure;altitude;pressure_sealevel;temperature;humidity
78615;BME280;67937;52.488;20.952;2023-10-19T00:01:08;100287.77;;;1.45;75.06
78615;BME280;67937;52.488;20.952;2023-10-19T00:03:37;100287.00;;;1.47;75.00
78615;BME280;67937;52.488;20.952;2023-10-19T00:06:04;100286.38;;;1.45;75.29
78615;BME280;67937;52.488;20.952;2023-10-19T00:08:31;100283.17;;;1.43;75.13
78615;BME280;67937;52.488;20.952;2023-10-19T00:11:08;100279.89;;;1.34;75.52
78615;BME280;67937;52.488;20.952;2023-10-19T00:13:37;100280.70;;;1.32;75.44
78615;BME280;67937;52.488;20.952;2023-10-19T00:16:04;100276.29;;;1.25;75.90
78615;BME280;67937;52.488;20.952;2023-10-19T00:18:37;100273.33;;;1.25;75.87
78615;BME280;67937;52.488;20.952;2023-10-19T00:21:08;100267.86;;;1.19;75.73
78615;BME280;67937;52.488;20.952;2023-10-19T00:23:45;100267.42;;;1.00;75.99
78615;BME280;67937;52.488;20.952;2023-10-19T00:26:13;100264.50;;;0.91;75.97
78615;BME280;67937;52.488;20.952;2023-10-19T00:28:43;100261.67;;;0.88;75.88
78615;BME280;67937;52.488;20.952;2023-10-19T00:31:14;100259.02;;;0.94;75.77
78615;BME280;67937;52.488;20.952;2023-10-19T00:33:41;100256.20;;;0.99;75.92
78615;BME280;67937;52.488;20.952;2023-10-19T00:36:08;100251.29;;;1.00;75.90
78615;BME280;67937;52.488;20.952;2023-10-19T00:38:39;100253.33;;;1.05;76.01
78615;BME280;67937;52.488;20.952;2023-10-19T00:41:09;100254.81;;;1.07;76.00
78615;BME280;67937;52.488;20.952;2023-10-19T00:43:40;100254.13;;;1.07;76.04
78615;BME280;67937;52.488;20.952;2023-10-19T00:46:11;100252.89;;;0.99;76.06
78615;BME280;67937;52.488;20.952;2023-10-19T00:48:57;100248.39;;;1.03;76.04
78615;BME280;67937;52.488;20.952;2023-10-19T00:51:28;100247.00;;;1.07;76.08
78615;BME280;67937;52.488;20.952;2023-10-19T00:54:12;100241.56;;;1.04;75.58
78615;BME280;67937;52.488;20.952;2023-10-19T00:56:46;100233.99;;;0.98;75.71
78615;BME280;67937;52.488;20.952;2023-10-19T00:59:17;100229.48;;;0.98;76.05
78615;BME280;67937;52.488;20.952;2023-10-19T01:01:50;100228.84;;;1.05;76.02
78615;BME280;67937;52.488;20.952;2023-10-19T01:04:21;100225.61;;;1.07;76.03
78615;BME280;67937;52.488;20.952;2023-10-19T01:06:49;100220.95;;;0.94;76.21
78615;BME280;67937;52.488;20.952;2023-10-19T01:09:28;100223.21;;;0.94;76.47
78615;BME280;67937;52.488;20.952;2023-10-19T01:11:54;100218.81;;;1.04;76.29
78615;BME280;67937;52.488;20.952;2023-10-19T01:14:22;100213.67;;;1.06;76.08
78615;BME280;67937;52.488;20.952;2023-10-19T01:16:54;100213.44;;;1.04;75.94
78615;BME280;67937;52.488;20.952;2023-10-19T01:19:23;100205.20;;;1.01;75.75
78615;BME280;67937;52.488;20.952;2023-10-19T01:21:50;100203.04;;;1.03;75.68
78615;BME280;67937;52.488;20.952;2023-10-19T01:24:21;100203.23;;;1.02;75.40
78615;BME280;67937;52.488;20.952;2023-10-19T01:26:59;100197.05;;;1.01;75.41
78615;BME280;67937;52.488;20.952;2023-10-19T01:29:26;100187.96;;;0.98;75.43
78615;BME280;67937;52.488;20.952;2023-10-19T01:31:53;100182.98;;;0.96;75.63
78615;BME280;67937;52.488;20.952;2023-10-19T01:34:30;100182.02;;;0.95;75.49
78615;BME280;67937;52.488;20.952;2023-10-19T01:37:00;100184.54;;;0.89;75.37
78615;BME280;67937;52.488;20.952;2023-10-19T01:39:35;100183.55;;;0.80;75.59
78615;BME280;67937;52.488;20.952;2023-10-19T01:42:04;100181.35;;;0.74;75.80
78615;BME280;67937;52.488;20.952;2023-10-19T01:44:31;100178.83;;;0.76;75.95
78615;BME280;67937;52.488;20.952;2023-10-19T01:46:59;100180.11;;;0.74;75.85
78615;BME280;67937;52.488;20.952;2023-10-19T01:49:26;100176.73;;;0.77;75.60
78615;BME280;67937;52.488;20.952;2023-10-19T01:51:54;100184.77;;;0.71;75.97
78615;BME280;67937;52.488;20.952;2023-10-19T01:54:22;100183.51;;;0.72;75.84
78615;BME280;67937;52.488;20.952;2023-10-19T01:56:55;100190.86;;;0.70;75.73
78615;BME280;67937;52.488;20.952;2023-10-19T01:59:27;100192.35;;;0.72;75.95
78615;BME280;67937;52.488;20.952;2023-10-19T02:01:55;100194.44;;;0.76;75.95
78615;BME280;67937;52.488;20.952;2023-10-19T02:04:23;100187.85;;;0.80;76.01
78615;BME280;67937;52.488;20.952;2023-10-19T02:06:51;100187.70;;;0.80;76.36
78615;BME280;67937;52.488;20.952;2023-10-19T02:09:19;100186.02;;;0.74;76.60
78615;BME280;67937;52.488;20.952;2023-10-19T02:11:54;100181.84;;;0.75;76.40
78615;BME280;67937;52.488;20.952;2023-10-19T02:14:24;100182.69;;;0.75;76.48
78615;BME280;67937;52.488;20.952;2023-10-19T02:16:56;100182.41;;;0.82;76.61
78615;BME280;67937;52.488;20.952;2023-10-19T02:19:22;100179.20;;;0.84;76.59
78615;BME280;67937;52.488;20.952;2023-10-19T02:21:52;100176.80;;;0.87;76.43
78615;BME280;67937;52.488;20.952;2023-10-19T02:24:19;100170.02;;;0.87;76.41
78615;BME280;67937;52.488;20.952;2023-10-19T02:26:52;100169.08;;;0.89;76.56
78615;BME280;67937;52.488;20.952;2023-10-19T02:29:19;100162.77;;;0.86;76.51
78615;BME280;67937;52.488;20.952;2023-10-19T02:31:46;100162.30;;;0.77;76.41
78615;BME280;67937;52.488;20.952;2023-10-19T02:34:14;100155.33;;;0.78;76.47
78615;BME280;67937;52.488;20.952;2023-10-19T02:36:42;100159.05;;;0.80;76.67
78615;BME280;67937;52.488;20.952;2023-10-19T02:39:11;100163.11;;;0.78;76.51
78615;BME280;67937;52.488;20.952;2023-10-19T02:41:39;100156.76;;;0.68;76.51
78615;BME280;67937;52.488;20.952;2023-10-19T02:44:12;100156.15;;;0.66;76.70
78615;BME280;67937;52.488;20.952;2023-10-19T02:46:46;100153.16;;;0.59;76.88
78615;BME280;67937;52.488;20.952;2023-10-19T02:49:14;100149.10;;;0.60;76.72
78615;BME280;67937;52.488;20.952;2023-10-19T02:51:44;100151.59;;;0.51;76.96
78615;BME280;67937;52.488;20.952;2023-10-19T02:54:12;100143.63;;;0.37;77.27
78615;BME280;67937;52.488;20.952;2023-10-19T02:56:44;100141.83;;;0.27;77.57
78615;BME280;67937;52.488;20.952;2023-10-19T02:59:13;100138.17;;;0.18;77.55
78615;BME280;67937;52.488;20.952;2023-10-19T03:01:42;100136.79;;;0.27;77.37
78615;BME280;67937;52.488;20.952;2023-10-19T03:04:10;100134.64;;;0.37;77.15
78615;BME280;67937;52.488;20.952;2023-10-19T03:06:38;100136.41;;;0.44;77.23
78615;BME280;67937;52.488;20.952;2023-10-19T03:09:08;100128.39;;;0.49;76.86
78615;BME280;67937;52.488;20.952;2023-10-19T03:11:43;100123.64;;;0.46;76.87
78615;BME280;67937;52.488;20.952;2023-10-19T03:14:11;100124.84;;;0.51;76.76
78615;BME280;67937;52.488;20.952;2023-10-19T03:16:38;100118.50;;;0.53;76.65
78615;BME280;67937;52.488;20.952;2023-10-19T03:19:07;100112.94;;;0.54;76.54
78615;BME280;67937;52.488;20.952;2023-10-19T03:21:35;100113.31;;;0.53;76.51
78615;BME280;67937;52.488;20.952;2023-10-19T03:24:09;100111.27;;;0.52;76.61
78615;BME280;67937;52.488;20.952;2023-10-19T03:26:39;100111.15;;;0.51;76.46
78615;BME280;67937;52.488;20.952;2023-10-19T03:29:09;100108.73;;;0.50;76.50
78615;BME280;67937;52.488;20.952;2023-10-19T03:31:38;100108.53;;;0.51;76.53
78615;BME280;67937;52.488;20.952;2023-10-19T03:34:10;100108.83;;;0.40;76.45
78615;BME280;67937;52.488;20.952;2023-10-19T03:36:39;100108.98;;;0.32;76.83
78615;BME280;67937;52.488;20.952;2023-10-19T03:39:06;100105.64;;;0.37;76.71
78615;BME280;67937;52.488;20.952;2023-10-19T03:41:39;100105.11;;;0.37;76.49
78615;BME280;67937;52.488;20.952;2023-10-19T03:44:09;100101.48;;;0.29;76.60
78615;BME280;67937;52.488;20.952;2023-10-19T03:46:41;100097.61;;;0.30;76.73
78615;BME280;67937;52.488;20.952;2023-10-19T03:49:22;100094.42;;;0.28;76.70
78615;BME280;67937;52.488;20.952;2023-10-19T03:51:52;100093.77;;;0.13;76.94
78615;BME280;67937;52.488;20.952;2023-10-19T03:54:25;100086.88;;;0.09;76.87
78615;BME280;67937;52.488;20.952;2023-10-19T03:56:54;100086.45;;;0.11;76.75
78615;BME280;67937;52.488;20.952;2023-10-19T03:59:21;100079.58;;;0.17;76.68
78615;BME280;67937;52.488;20.952;2023-10-19T04:01:48;100078.38;;;0.21;76.54
78615;BME280;67937;52.488;20.952;2023-10-19T04:04:14;100075.69;;;0.27;76.46
78615;BME280;67937;52.488;20.952;2023-10-19T04:06:42;100071.36;;;0.31;76.26
78615;BME280;67937;52.488;20.952;2023-10-19T04:09:14;100065.44;;;0.35;76.31
78615;BME280;67937;52.488;20.952;2023-10-19T04:11:43;100060.15;;;0.38;76.35
78615;BME280;67937;52.488;20.952;2023-10-19T04:14:15;100052.14;;;0.38;76.56
78615;BME280;67937;52.488;20.952;2023-10-19T04:16:43;100042.55;;;0.43;76.55
78615;BME280;67937;52.488;20.952;2023-10-19T04:19:10;100033.84;;;0.48;76.46
78615;BME280;67937;52.488;20.952;2023-10-19T04:21:37;100032.90;;;0.50;76.51
78615;BME280;67937;52.488;20.952;2023-10-19T04:24:08;100025.93;;;0.47;76.72
78615;BME280;67937;52.488;20.952;2023-10-19T04:26:35;100030.38;;;0.52;76.70
78615;BME280;67937;52.488;20.952;2023-10-19T04:29:07;100026.73;;;0.56;76.69
78615;BME280;67937;52.488;20.952;2023-10-19T04:31:37;100025.38;;;0.59;76.72
78615;BME280;67937;52.488;20.952;2023-10-19T04:34:03;100019.33;;;0.62;76.73
78615;BME280;67937;52.488;20.952;2023-10-19T04:36:33;100014.35;;;0.65;76.78
78615;BME280;67937;52.488;20.952;2023-10-19T04:39:00;100011.55;;;0.65;76.67
78615;BME280;67937;52.488;20.952;2023-10-19T04:41:26;100006.09;;;0.67;76.70
78615;BME280;67937;52.488;20.952;2023-10-19T04:43:53;100009.47;;;0.69;76.77
78615;BME280;67937;52.488;20.952;2023-10-19T04:46:23;100006.48;;;0.70;76.65
78615;BME280;67937;52.488;20.952;2023-10-19T04:48:49;100011.32;;;0.67;76.91
78615;BME280;67937;52.488;20.952;2023-10-19T04:51:16;100013.80;;;0.66;76.92
78615;BME280;67937;52.488;20.952;2023-10-19T04:53:43;100011.27;;;0.64;76.87
78615;BME280;67937;52.488;20.952;2023-10-19T04:56:09;100008.96;;;0.61;76.99
78615;BME280;67937;52.488;20.952;2023-10-19T04:58:38;100008.17;;;0.63;77.04
78615;BME280;67937;52.488;20.952;2023-10-19T05:01:05;100004.66;;;0.64;76.78
78615;BME280;67937;52.488;20.952;2023-10-19T05:03:31;100007.44;;;0.64;76.67
78615;BME280;67937;52.488;20.952;2023-10-19T05:05:58;100000.95;;;0.66;76.74
78615;BME280;67937;52.488;20.952;2023-10-19T05:08:25;100002.58;;;0.68;76.75
78615;BME280;67937;52.488;20.952;2023-10-19T05:10:56;99999.44;;;0.68;76.81
78615;BME280;67937;52.488;20.952;2023-10-19T05:13:25;99994.73;;;0.69;76.80
78615;BME280;67937;52.488;20.952;2023-10-19T05:15:53;99992.99;;;0.69;76.79
78615;BME280;67937;52.488;20.952;2023-10-19T05:18:21;99989.86;;;0.69;76.74
78615;BME280;67937;52.488;20.952;2023-10-19T05:20:49;99991.48;;;0.72;76.80
78615;BME280;67937;52.488;20.952;2023-10-19T05:23:24;99995.04;;;0.70;77.15
78615;BME280;67937;52.488;20.952;2023-10-19T05:26:00;100008.11;;;0.61;77.49
78615;BME280;67937;52.488;20.952;2023-10-19T05:28:28;100011.79;;;0.56;77.59
78615;BME280;67937;52.488;20.952;2023-10-19T05:30:55;100013.15;;;0.61;77.64
78615;BME280;67937;52.488;20.952;2023-10-19T05:33:21;100017.95;;;0.66;78.11
78615;BME280;67937;52.488;20.952;2023-10-19T05:35:50;100012.11;;;0.69;77.83
78615;BME280;67937;52.488;20.952;2023-10-19T05:38:17;100011.08;;;0.76;77.82
78615;BME280;67937;52.488;20.952;2023-10-19T05:40:45;100011.27;;;0.83;78.02
78615;BME280;67937;52.488;20.952;2023-10-19T05:43:12;100014.29;;;0.89;77.86
78615;BME280;67937;52.488;20.952;2023-10-19T05:45:39;100012.90;;;0.97;77.69
78615;BME280;67937;52.488;20.952;2023-10-19T05:48:06;100011.32;;;1.05;77.73
78615;BME280;67937;52.488;20.952;2023-10-19T05:50:35;100011.20;;;1.11;77.50
78615;BME280;67937;52.488;20.952;2023-10-19T05:53:03;100009.09;;;1.16;77.48
78615;BME280;67937;52.488;20.952;2023-10-19T05:55:31;100004.16;;;1.17;77.55
78615;BME280;67937;52.488;20.952;2023-10-19T05:57:58;99999.73;;;1.19;77.70
78615;BME280;67937;52.488;20.952;2023-10-19T06:00:25;99998.77;;;1.21;77.57
78615;BME280;67937;52.488;20.952;2023-10-19T06:02:52;100001.45;;;1.27;77.61
78615;BME280;67937;52.488;20.952;2023-10-19T06:05:19;99996.13;;;1.33;77.68
78615;BME280;67937;52.488;20.952;2023-10-19T06:07:48;99989.27;;;1.38;77.66
78615;BME280;67937;52.488;20.952;2023-10-19T06:10:18;99986.58;;;1.44;77.86
78615;BME280;67937;52.488;20.952;2023-10-19T06:12:49;99984.30;;;1.47;78.11
78615;BME280;67937;52.488;20.952;2023-10-19T06:15:18;99983.92;;;1.52;77.82
78615;BME280;67937;52.488;20.952;2023-10-19T06:17:46;99983.73;;;1.56;77.97
78615;BME280;67937;52.488;20.952;2023-10-19T06:20:14;99981.90;;;1.61;78.13
78615;BME280;67937;52.488;20.952;2023-10-19T06:22:55;99983.55;;;1.66;78.18
78615;BME280;67937;52.488;20.952;2023-10-19T06:25:24;99981.85;;;1.73;78.60
78615;BME280;67937;52.488;20.952;2023-10-19T06:27:52;99980.48;;;1.79;78.96
78615;BME280;67937;52.488;20.952;2023-10-19T06:30:20;99976.54;;;1.85;78.61
78615;BME280;67937;52.488;20.952;2023-10-19T06:32:51;99969.36;;;1.93;79.02
78615;BME280;67937;52.488;20.952;2023-10-19T06:35:21;99967.28;;;2.03;79.01
78615;BME280;67937;52.488;20.952;2023-10-19T06:37:48;99970.05;;;2.13;79.27
78615;BME280;67937;52.488;20.952;2023-10-19T06:40:16;99969.51;;;2.21;79.26
78615;BME280;67937;52.488;20.952;2023-10-19T06:42:44;99971.08;;;2.31;79.81
78615;BME280;67937;52.488;20.952;2023-10-19T06:45:12;99969.42;;;2.29;80.13
78615;BME280;67937;52.488;20.952;2023-10-19T06:47:43;99966.83;;;2.29;80.13
78615;BME280;67937;52.488;20.952;2023-10-19T06:50:12;99962.84;;;2.39;79.94
78615;BME280;67937;52.488;20.952;2023-10-19T06:52:42;99963.35;;;2.49;79.67
78615;BME280;67937;52.488;20.952;2023-10-19T06:55:10;99960.64;;;2.60;79.72
78615;BME280;67937;52.488;20.952;2023-10-19T06:57:43;99955.34;;;2.72;79.30
78615;BME280;67937;52.488;20.952;2023-10-19T07:00:13;99954.77;;;2.79;78.97
78615;BME280;67937;52.488;20.952;2023-10-19T07:02:42;99946.16;;;2.87;79.38
78615;BME280;67937;52.488;20.952;2023-10-19T07:05:10;99940.40;;;2.94;79.30
78615;BME280;67937;52.488;20.952;2023-10-19T07:07:41;99936.91;;;3.00;79.28
78615;BME280;67937;52.488;20.952;2023-10-19T07:10:09;99939.56;;;3.09;79.14
78615;BME280;67937;52.488;20.952;2023-10-19T07:12:39;99943.48;;;3.16;79.01
78615;BME280;67937;52.488;20.952;2023-10-19T07:15:08;99945.91;;;3.23;78.92
78615;BME280;67937;52.488;20.952;2023-10-19T07:17:43;99946.56;;;3.30;79.08
78615;BME280;67937;52.488;20.952;2023-10-19T07:20:11;99938.65;;;3.37;79.08
78615;BME280;67937;52.488;20.952;2023-10-19T07:22:48;99930.50;;;3.46;78.97
78615;BME280;67937;52.488;20.952;2023-10-19T07:25:14;99932.48;;;3.54;79.09
78615;BME280;67937;52.488;20.952;2023-10-19T07:27:41;99934.86;;;3.64;79.04
78615;BME280;67937;52.488;20.952;2023-10-19T07:30:09;99932.71;;;3.74;79.11
78615;BME280;67937;52.488;20.952;2023-10-19T07:32:36;99927.83;;;3.85;79.53
78615;BME280;67937;52.488;20.952;2023-10-19T07:35:04;99917.23;;;4.00;79.96
78615;BME280;67937;52.488;20.952;2023-10-19T07:37:31;99910.67;;;4.13;80.23
78615;BME280;67937;52.488;20.952;2023-10-19T07:39:58;99904.98;;;4.23;80.45
78615;BME280;67937;52.488;20.952;2023-10-19T07:42:24;99904.38;;;4.36;80.54
78615;BME280;67937;52.488;20.952;2023-10-19T07:44:51;99900.60;;;4.49;80.31
78615;BME280;67937;52.488;20.952;2023-10-19T07:47:18;99899.19;;;4.63;80.21
78615;BME280;67937;52.488;20.952;2023-10-19T07:49:45;99891.80;;;4.78;80.07
78615;BME280;67937;52.488;20.952;2023-10-19T07:52:13;99886.75;;;4.91;79.72
78615;BME280;67937;52.488;20.952;2023-10-19T07:54:40;99882.04;;;5.02;79.63
78615;BME280;67937;52.488;20.952;2023-10-19T07:57:06;99888.02;;;5.12;79.55
78615;BME280;67937;52.488;20.952;2023-10-19T07:59:33;99884.48;;;5.21;79.37
78615;BME280;67937;52.488;20.952;2023-10-19T08:02:01;99888.98;;;5.31;79.22
78615;BME280;67937;52.488;20.952;2023-10-19T08:04:30;99892.38;;;5.40;79.10
78615;BME280;67937;52.488;20.952;2023-10-19T08:07:00;99878.06;;;5.48;78.78
78615;BME280;67937;52.488;20.952;2023-10-19T08:09:26;99867.72;;;5.56;78.67
78615;BME280;67937;52.488;20.952;2023-10-19T08:11:57;99859.27;;;5.64;78.65
78615;BME280;67937;52.488;20.952;2023-10-19T08:14:25;99855.02;;;5.70;78.73
78615;BME280;67937;52.488;20.952;2023-10-19T08:16:53;99856.19;;;5.79;78.56
78615;BME280;67937;52.488;20.952;2023-10-19T08:19:19;99854.11;;;5.87;78.31
78615;BME280;67937;52.488;20.952;2023-10-19T08:21:46;99854.61;;;5.95;78.00
78615;BME280;67937;52.488;20.952;2023-10-19T08:24:13;99857.77;;;6.02;77.76
78615;BME280;67937;52.488;20.952;2023-10-19T08:26:44;99862.55;;;6.11;77.71
78615;BME280;67937;52.488;20.952;2023-10-19T08:29:12;99857.23;;;6.17;77.47
78615;BME280;67937;52.488;20.952;2023-10-19T08:31:40;99856.59;;;6.26;77.29
78615;BME280;67937;52.488;20.952;2023-10-19T08:34:11;99848.23;;;6.33;76.88
78615;BME280;67937;52.488;20.952;2023-10-19T08:36:38;99842.25;;;6.41;76.92
78615;BME280;67937;52.488;20.952;2023-10-19T08:39:06;99835.69;;;6.52;76.81
78615;BME280;67937;52.488;20.952;2023-10-19T08:41:36;99829.37;;;6.62;76.56
78615;BME280;67937;52.488;20.952;2023-10-19T08:44:05;99818.66;;;6.72;76.36
78615;BME280;67937;52.488;20.952;2023-10-19T08:46:40;99817.18;;;6.83;76.40
78615;BME280;67937;52.488;20.952;2023-10-19T08:49:12;99815.48;;;6.94;76.12
78615;BME280;67937;52.488;20.952;2023-10-19T08:51:40;99811.65;;;7.03;76.13
78615;BME280;67937;52.488;20.952;2023-10-19T08:54:11;99814.75;;;7.16;75.87
78615;BME280;67937;52.488;20.952;2023-10-19T08:56:38;99817.53;;;7.28;75.69
78615;BME280;67937;52.488;20.952;2023-10-19T08:59:08;99814.82;;;7.41;75.47
78615;BME280;67937;52.488;20.952;2023-10-19T09:01:37;99811.79;;;7.55;74.80
78615;BME280;67937;52.488;20.952;2023-10-19T09:04:04;99805.71;;;7.65;74.81
78615;BME280;67937;52.488;20.952;2023-10-19T09:06:35;99801.51;;;7.77;74.77
78615;BME280;67937;52.488;20.952;2023-10-19T09:09:12;99797.95;;;7.94;74.37
78615;BME280;67937;52.488;20.952;2023-10-19T09:11:43;99788.06;;;8.06;74.17
78615;BME280;67937;52.488;20.952;2023-10-19T09:14:10;99787.02;;;8.19;73.84
78615;BME280;67937;52.488;20.952;2023-10-19T09:16:53;99787.38;;;8.33;73.72
78615;BME280;67937;52.488;20.952;2023-10-19T09:19:20;99786.23;;;8.40;73.30
78615;BME280;67937;52.488;20.952;2023-10-19T09:21:47;99787.69;;;8.46;72.40
78615;BME280;67937;52.488;20.952;2023-10-19T09:24:13;99777.86;;;8.48;72.49
78615;BME280;67937;52.488;20.952;2023-10-19T09:26:42;99768.84;;;8.55;71.63
78615;BME280;67937;52.488;20.952;2023-10-19T09:29:12;99758.95;;;8.58;71.29
78615;BME280;67937;52.488;20.952;2023-10-19T09:31:44;99738.59;;;8.66;70.31
78615;BME280;67937;52.488;20.952;2023-10-19T09:34:11;99736.94;;;8.70;70.85
78615;BME280;67937;52.488;20.952;2023-10-19T09:36:38;99731.33;;;8.76;70.88
78615;BME280;67937;52.488;20.952;2023-10-19T09:39:04;99725.42;;;8.81;70.84
78615;BME280;67937;52.488;20.952;2023-10-19T09:41:39;99717.41;;;8.86;71.17
78615;BME280;67937;52.488;20.952;2023-10-19T09:44:07;99711.83;;;8.94;70.30
78615;BME280;67937;52.488;20.952;2023-10-19T09:46:39;99711.33;;;8.96;70.57
78615;BME280;67937;52.488;20.952;2023-10-19T09:49:06;99707.48;;;9.02;70.82
78615;BME280;67937;52.488;20.952;2023-10-19T09:51:34;99702.94;;;9.10;70.72
78615;BME280;67937;52.488;20.952;2023-10-19T09:54:19;99693.52;;;9.18;69.98
78615;BME280;67937;52.488;20.952;2023-10-19T09:56:52;99683.17;;;9.21;70.17
78615;BME280;67937;52.488;20.952;2023-10-19T09:59:28;99684.33;;;9.28;69.86
78615;BME280;67937;52.488;20.952;2023-10-19T10:02:09;99669.45;;;9.34;68.99
78615;BME280;67937;52.488;20.952;2023-10-19T10:04:39;99662.20;;;9.38;69.36
78615;BME280;67937;52.488;20.952;2023-10-19T10:07:07;99664.56;;;9.47;68.83
78615;BME280;67937;52.488;20.952;2023-10-19T10:09:37;99660.98;;;9.52;67.71
78615;BME280;67937;52.488;20.952;2023-10-19T10:15:06;99660.83;;;9.52;67.31
78615;BME280;67937;52.488;20.952;2023-10-19T10:17:36;99656.82;;;9.53;67.03
78615;BME280;67937;52.488;20.952;2023-10-19T10:22:40;99656.14;;;9.57;66.46
78615;BME280;67937;52.488;20.952;2023-10-19T10:25:07;99644.73;;;9.57;66.35
78615;BME280;67937;52.488;20.952;2023-10-19T10:27:40;99635.27;;;9.60;66.27
78615;BME280;67937;52.488;20.952;2023-10-19T10:30:14;99632.81;;;9.64;66.69
78615;BME280;67937;52.488;20.952;2023-10-19T10:32:45;99623.52;;;9.69;66.82
78615;BME280;67937;52.488;20.952;2023-10-19T10:38:06;99611.51;;;9.82;66.39
78615;BME280;67937;52.488;20.952;2023-10-19T10:40:45;99616.23;;;9.84;66.02
78615;BME280;67937;52.488;20.952;2023-10-19T10:43:12;99616.61;;;9.82;66.45
78615;BME280;67937;52.488;20.952;2023-10-19T10:45:38;99616.67;;;9.85;66.45
78615;BME280;67937;52.488;20.952;2023-10-19T10:48:18;99607.79;;;9.84;66.01
78615;BME280;67937;52.488;20.952;2023-10-19T10:50:45;99597.11;;;9.85;66.13
78615;BME280;67937;52.488;20.952;2023-10-19T10:53:13;99595.85;;;9.85;66.23
78615;BME280;67937;52.488;20.952;2023-10-19T10:55:41;99589.02;;;9.89;66.17
78615;BME280;67937;52.488;20.952;2023-10-19T10:58:08;99586.66;;;9.96;64.97
78615;BME280;67937;52.488;20.952;2023-10-19T11:00:42;99587.79;;;9.95;65.10
78615;BME280;67937;52.488;20.952;2023-10-19T11:03:09;99576.91;;;9.94;65.71
78615;BME280;67937;52.488;20.952;2023-10-19T11:05:36;99569.75;;;10.03;65.28
78615;BME280;67937;52.488;20.952;2023-10-19T11:08:13;99558.26;;;10.10;64.89
78615;BME280;67937;52.488;20.952;2023-10-19T11:10:44;99556.30;;;10.10;64.45
78615;BME280;67937;52.488;20.952;2023-10-19T11:13:13;99556.06;;;10.09;64.28
78615;BME280;67937;52.488;20.952;2023-10-19T11:15:51;99548.66;;;10.03;64.07
78615;BME280;67937;52.488;20.952;2023-10-19T11:18:29;99545.34;;;9.97;64.79
78615;BME280;67937;52.488;20.952;2023-10-19T11:20:57;99539.94;;;9.98;64.47
78615;BME280;67937;52.488;20.952;2023-10-19T11:23:38;99535.00;;;9.96;64.56
78615;BME280;67937;52.488;20.952;2023-10-19T11:26:05;99521.79;;;9.92;65.06
78615;BME280;67937;52.488;20.952;2023-10-19T11:28:33;99520.42;;;9.93;65.01
78615;BME280;67937;52.488;20.952;2023-10-19T11:31:13;99516.64;;;10.04;64.20
78615;BME280;67937;52.488;20.952;2023-10-19T11:33:41;99517.09;;;10.01;64.43
78615;BME280;67937;52.488;20.952;2023-10-19T11:36:10;99516.33;;;10.05;64.58
78615;BME280;67937;52.488;20.952;2023-10-19T11:38:45;99518.39;;;10.12;64.15
78615;BME280;67937;52.488;20.952;2023-10-19T11:41:13;99516.42;;;10.11;64.59
78615;BME280;67937;52.488;20.952;2023-10-19T11:43:41;99516.28;;;10.16;64.53
78615;BME280;67937;52.488;20.952;2023-10-19T11:46:09;99514.15;;;10.14;64.53
78615;BME280;67937;52.488;20.952;2023-10-19T11:48:38;99504.83;;;10.18;64.14
78615;BME280;67937;52.488;20.952;2023-10-19T11:51:06;99500.95;;;10.18;63.90
78615;BME280;67937;52.488;20.952;2023-10-19T11:53:34;99497.79;;;10.22;63.29
78615;BME280;67937;52.488;20.952;2023-10-19T11:56:07;99493.14;;;10.11;63.85
78615;BME280;67937;52.488;20.952;2023-10-19T11:58:34;99493.89;;;10.08;64.34
78615;BME280;67937;52.488;20.952;2023-10-19T12:01:01;99501.80;;;10.09;64.74
78615;BME280;67937;52.488;20.952;2023-10-19T12:03:31;99503.41;;;10.10;64.77
78615;BME280;67937;52.488;20.952;2023-10-19T12:06:01;99498.38;;;10.11;64.89
78615;BME280;67937;52.488;20.952;2023-10-19T12:08:30;99501.45;;;10.10;64.96
78615;BME280;67937;52.488;20.952;2023-10-19T12:10:56;99504.06;;;10.11;65.02
78615;BME280;67937;52.488;20.952;2023-10-19T12:13:23;99513.83;;;10.08;64.99
78615;BME280;67937;52.488;20.952;2023-10-19T12:15:49;99519.33;;;10.08;64.90
78615;BME280;67937;52.488;20.952;2023-10-19T12:18:21;99517.55;;;10.12;64.28
78615;BME280;67937;52.488;20.952;2023-10-19T12:20:47;99511.05;;;10.03;64.70
78615;BME280;67937;52.488;20.952;2023-10-19T12:23:14;99508.59;;;10.05;64.58
78615;BME280;67937;52.488;20.952;2023-10-19T12:25:41;99507.56;;;10.07;64.74
78615;BME280;67937;52.488;20.952;2023-10-19T12:28:08;99505.98;;;10.11;64.87
78615;BME280;67937;52.488;20.952;2023-10-19T12:30:40;99497.08;;;10.14;64.78
78615;BME280;67937;52.488;20.952;2023-10-19T12:33:08;99491.69;;;10.19;64.90
78615;BME280;67937;52.488;20.952;2023-10-19T12:35:38;99484.97;;;10.21;64.64
78615;BME280;67937;52.488;20.952;2023-10-19T12:38:18;99481.77;;;10.21;65.00
78615;BME280;67937;52.488;20.952;2023-10-19T12:40:47;99477.66;;;10.26;65.03
78615;BME280;67937;52.488;20.952;2023-10-19T12:43:15;99476.58;;;10.28;64.57
78615;BME280;67937;52.488;20.952;2023-10-19T12:45:42;99469.97;;;10.25;64.68
78615;BME280;67937;52.488;20.952;2023-10-19T12:48:10;99466.80;;;10.27;64.88
78615;BME280;67937;52.488;20.952;2023-10-19T12:50:37;99464.55;;;10.30;65.00
78615;BME280;67937;52.488;20.952;2023-10-19T12:53:04;99462.06;;;10.35;64.86
78615;BME280;67937;52.488;20.952;2023-10-19T12:55:32;99453.37;;;10.35;64.50
78615;BME280;67937;52.488;20.952;2023-10-19T12:58:00;99442.15;;;10.38;64.74
78615;BME280;67937;52.488;20.952;2023-10-19T13:00:33;99437.97;;;10.44;64.75
78615;BME280;67937;52.488;20.952;2023-10-19T13:03:04;99432.40;;;10.45;64.57
78615;BME280;67937;52.488;20.952;2023-10-19T13:05:35;99434.31;;;10.45;64.12
78615;BME280;67937;52.488;20.952;2023-10-19T13:08:04;99433.76;;;10.41;64.51
78615;BME280;67937;52.488;20.952;2023-10-19T13:10:32;99434.05;;;10.42;64.54
78615;BME280;67937;52.488;20.952;2023-10-19T13:13:00;99423.83;;;10.42;64.37
78615;BME280;67937;52.488;20.952;2023-10-19T13:15:32;99420.34;;;10.40;64.45